Time;durP1;ratioP1;P1;durP2;ratioP2;P2;SDS_P1;SDS_P2;PMS_P1;PMS_P2;Temp;Humidity;BMP_temperature;BMP_pressure;BME280_temperature;BME280_humidity;BME280_pressure;Samples;Min_cycle;Max_cycle;Signal;HPM_P1;HPM_P2
2022/12/23 00:01:34;;;;;;;10.53;3.27;;;11.30;99.90;;;;;;5102796;28;20195;-96
2022/12/23 00:04:08;;;;;;;5.67;2.60;;;11.30;99.90;;;;;;5105901;28;20213;-94
2022/12/23 00:06:42;;;;;;;6.80;2.70;;;11.30;99.90;;;;;;5106931;28;20301;-93
2022/12/23 00:09:13;;;;;;;6.33;2.50;;;11.40;99.90;;;;;;5108813;28;20231;-93
2022/12/23 00:15:04;;;;;;;11.10;2.90;;;11.40;99.90;;;;;;5104939;28;20212;-93
2022/12/23 00:17:19;;;;;;;5.97;2.50;;;11.40;99.90;;;;;;5105800;28;20189;-95
2022/12/23 00:19:53;;;;;;;14.07;3.33;;;11.50;99.90;;;;;;5106448;28;20217;-93
2022/12/23 00:23:03;;;;;;;9.70;2.73;;;11.40;99.90;;;;;;5104803;28;20270;-92
2022/12/23 00:25:13;;;;;;;7.93;3.13;;;11.40;99.90;;;;;;5104600;28;20198;-96
2022/12/23 00:27:40;;;;;;;9.57;3.03;;;11.40;99.90;;;;;;5106514;28;20328;-96
2022/12/23 00:30:14;;;;;;;10.97;3.10;;;11.30;99.90;;;;;;5105786;28;20227;-96
2022/12/23 00:32:45;;;;;;;9.43;3.13;;;11.40;99.90;;;;;;5103177;28;20286;-96
2022/12/23 00:35:18;;;;;;;7.67;3.53;;;11.40;99.90;;;;;;5103498;28;20230;-94
2022/12/23 00:37:49;;;;;;;7.17;3.30;;;11.40;99.90;;;;;;5104274;28;20244;-95
2022/12/23 00:43:02;;;;;;;8.77;3.40;;;11.30;99.90;;;;;;5107758;28;20205;-95
2022/12/23 00:45:35;;;;;;;11.23;3.37;;;11.30;99.90;;;;;;5112147;28;20250;-94
2022/12/23 00:51:32;;;;;;;13.70;3.40;;;11.40;99.90;;;;;;5119068;28;20184;-84
2022/12/23 00:54:38;;;;;;;12.43;3.30;;;11.40;99.90;;;;;;5118777;28;20201;-87
2022/12/23 00:57:08;;;;;;;10.07;3.33;;;11.30;99.90;;;;;;5118460;28;20203;-91
2022/12/23 00:59:35;;;;;;;12.07;3.57;;;11.30;99.90;;;;;;5117501;28;20224;-85
2022/12/23 01:07:32;;;;;;;11.10;3.40;;;11.30;99.90;;;;;;5118103;28;20201;-84
2022/12/23 01:10:02;;;;;;;15.40;3.33;;;11.20;99.90;;;;;;5118179;28;20182;-82
2022/12/23 01:12:39;;;;;;;9.50;3.50;;;11.20;99.90;;;;;;5099461;28;20191;-85
2022/12/23 01:15:07;;;;;;;10.83;2.93;;;11.20;99.90;;;;;;5116148;28;20174;-83
2022/12/23 01:20:21;;;;;;;10.43;3.43;;;11.20;99.90;;;;;;5115025;28;20191;-81
2022/12/23 01:22:51;;;;;;;12.63;3.30;;;11.20;99.90;;;;;;5116393;28;20186;-84
2022/12/23 01:25:23;;;;;;;8.43;3.10;;;11.30;99.90;;;;;;5116236;28;20212;-84
2022/12/23 01:27:52;;;;;;;9.23;2.87;;;11.40;99.90;;;;;;5120293;22;20186;-83
2022/12/23 01:30:32;;;;;;;8.60;3.30;;;11.30;99.90;;;;;;5096452;28;20171;-82
2022/12/23 01:33:25;;;;;;;11.40;2.90;;;11.30;99.90;;;;;;5095011;28;20182;-82
2022/12/23 01:36:02;;;;;;;11.87;2.97;;;11.40;99.90;;;;;;5062115;28;20240;-91
2022/12/23 01:38:40;;;;;;;7.90;3.00;;;11.20;99.90;;;;;;5078505;28;20210;-84
2022/12/23 01:42:42;;;;;;;15.07;3.63;;;11.30;99.90;;;;;;5095721;28;20187;-89
2022/12/23 01:43:57;;;;;;;11.33;3.07;;;11.30;99.90;;;;;;5095323;28;20241;-89
2022/12/23 01:46:29;;;;;;;10.17;2.60;;;11.30;99.90;;;;;;5096546;28;20210;-88
2022/12/23 01:48:59;;;;;;;10.20;2.80;;;11.30;99.90;;;;;;5095569;28;20214;-81
2022/12/23 01:51:56;;;;;;;11.83;3.17;;;11.30;99.90;;;;;;5095681;28;20219;-84
2022/12/23 01:54:26;;;;;;;13.73;3.10;;;11.40;99.90;;;;;;5079040;28;20228;-84
2022/12/23 01:57:02;;;;;;;8.17;2.70;;;11.40;99.90;;;;;;5095927;28;20224;-88
2022/12/23 02:05:16;;;;;;;8.30;2.43;;;11.30;99.90;;;;;;5100298;28;20198;-84
2022/12/23 02:11:22;;;;;;;12.60;3.17;;;11.30;99.90;;;;;;5098947;28;20263;-89
2022/12/23 02:17:07;;;;;;;8.10;2.73;;;11.30;99.90;;;;;;5099569;28;20236;-88
2022/12/23 02:20:22;;;;;;;11.37;2.97;;;11.30;99.90;;;;;;5079546;28;20222;-85
2022/12/23 02:23:39;;;;;;;9.10;2.83;;;11.30;99.90;;;;;;4967576;29;20208;-90
2022/12/23 02:26:22;;;;;;;15.23;3.17;;;11.20;99.90;;;;;;4978209;29;20211;-84
2022/12/23 02:29:11;;;;;;;12.17;3.17;;;11.20;99.90;;;;;;5092900;28;20246;-82
2022/12/23 02:31:46;;;;;;;11.60;3.10;;;11.20;99.90;;;;;;5084093;28;20199;-95
2022/12/23 02:34:19;;;;;;;8.87;3.20;;;11.20;99.90;;;;;;5085032;28;20210;-93
2022/12/23 02:36:56;;;;;;;8.37;2.70;;;11.20;99.90;;;;;;5073440;28;20247;-91
2022/12/23 02:39:36;;;;;;;7.20;3.30;;;11.30;99.90;;;;;;5074991;28;20247;-93
2022/12/23 02:42:08;;;;;;;10.87;2.77;;;11.20;99.90;;;;;;5086805;28;20214;-92
2022/12/23 02:44:45;;;;;;;13.80;3.23;;;11.30;99.90;;;;;;5096433;28;20283;-94
2022/12/23 02:47:24;;;;;;;9.93;2.50;;;11.30;99.90;;;;;;5073077;28;20619;-95
2022/12/23 02:49:55;;;;;;;12.83;3.53;;;11.30;99.90;;;;;;5071353;28;20191;-96
2022/12/23 02:52:28;;;;;;;6.73;3.40;;;11.20;99.90;;;;;;5070936;28;20196;-94
2022/12/23 02:55:04;;;;;;;9.40;3.60;;;11.30;99.90;;;;;;5092553;28;20251;-91
2022/12/23 02:57:37;;;;;;;11.60;3.20;;;11.20;99.90;;;;;;5095798;28;20249;-89
2022/12/23 03:00:22;;;;;;;9.17;3.70;;;11.20;99.90;;;;;;5096372;28;20203;-91
2022/12/23 03:02:56;;;;;;;7.63;3.23;;;11.20;99.90;;;;;;5097425;28;20271;-83
2022/12/23 03:05:50;;;;;;;11.13;3.53;;;11.10;99.90;;;;;;5097985;28;20199;-82
2022/12/23 03:08:32;;;;;;;11.70;3.80;;;11.20;99.90;;;;;;5059246;28;20229;-92
2022/12/23 03:11:07;;;;;;;6.67;3.83;;;11.10;99.90;;;;;;5081077;28;20213;-93
2022/12/23 03:13:59;;;;;;;8.63;3.23;;;11.10;99.90;;;;;;5097160;28;20213;-85
2022/12/23 03:16:39;;;;;;;9.27;3.60;;;11.10;99.90;;;;;;5077741;28;20237;-95
2022/12/23 03:19:48;;;;;;;10.33;3.27;;;11.10;99.90;;;;;;5074295;28;20323;-94
2022/12/23 03:22:54;;;;;;;16.40;3.83;;;11.10;99.90;;;;;;5065406;28;20215;-91
2022/12/23 03:25:40;;;;;;;11.00;3.00;;;11.00;99.90;;;;;;5063606;28;20270;-95
2022/12/23 03:28:18;;;;;;;7.30;2.80;;;11.00;99.90;;;;;;5082156;28;20294;-91
2022/12/23 03:30:51;;;;;;;7.73;3.30;;;11.00;99.90;;;;;;5083369;28;20213;-91
2022/12/23 03:33:24;;;;;;;10.03;3.20;;;11.00;99.90;;;;;;5082393;28;20249;-93
2022/12/23 03:35:59;;;;;;;11.50;3.87;;;11.00;99.90;;;;;;5081925;28;20257;-91
2022/12/23 03:38:30;;;;;;;9.43;3.27;;;11.10;99.90;;;;;;5080531;28;20497;-86
2022/12/23 03:41:06;;;;;;;9.63;3.23;;;11.20;99.90;;;;;;5082167;28;20259;-95
2022/12/23 03:43:39;;;;;;;9.63;2.90;;;11.20;99.90;;;;;;5085620;28;20298;-94
2022/12/23 03:46:13;;;;;;;11.30;2.93;;;11.10;99.90;;;;;;5086069;28;20207;-96
2022/12/23 03:48:45;;;;;;;9.37;2.60;;;11.20;99.90;;;;;;5083788;28;20313;-93
2022/12/23 03:51:17;;;;;;;15.50;2.87;;;11.20;99.90;;;;;;5072899;28;20294;-92
2022/12/23 03:53:57;;;;;;;8.67;3.10;;;11.10;99.90;;;;;;5068685;28;20287;-95
2022/12/23 03:56:31;;;;;;;8.87;3.13;;;11.10;99.90;;;;;;5073598;28;20421;-92
2022/12/23 03:59:00;;;;;;;9.70;3.07;;;11.10;99.90;;;;;;5083634;28;20222;-93
2022/12/23 04:01:35;;;;;;;8.70;2.90;;;11.00;99.90;;;;;;5082488;28;20206;-94
2022/12/23 04:04:06;;;;;;;11.33;3.40;;;11.00;99.90;;;;;;5083008;28;20284;-93
2022/12/23 04:06:44;;;;;;;13.50;4.13;;;11.10;99.90;;;;;;5084934;28;20214;-95
2022/12/23 04:09:17;;;;;;;12.30;3.30;;;11.00;99.90;;;;;;5084413;28;20253;-91
2022/12/23 04:11:48;;;;;;;14.70;3.30;;;11.10;99.90;;;;;;5083855;28;20195;-94
2022/12/23 04:14:18;;;;;;;13.93;3.90;;;11.10;99.90;;;;;;5081420;28;20270;-90
2022/12/23 04:16:57;;;;;;;10.70;3.20;;;11.10;99.90;;;;;;5080531;28;20655;-91
2022/12/23 04:19:29;;;;;;;8.93;3.10;;;11.20;99.90;;;;;;5079870;28;20252;-96
2022/12/23 04:21:59;;;;;;;10.20;3.30;;;11.20;99.90;;;;;;5081715;28;20657;-93
2022/12/23 04:24:30;;;;;;;11.43;3.37;;;11.10;99.90;;;;;;5080249;28;20210;-94
2022/12/23 04:26:59;;;;;;;8.73;3.27;;;11.10;99.90;;;;;;5062817;28;20288;-93
2022/12/23 04:29:26;;;;;;;11.67;3.40;;;11.00;99.90;;;;;;5080688;28;20701;-96
2022/12/23 04:32:00;;;;;;;11.83;3.17;;;11.00;99.90;;;;;;5080949;28;20216;-95
2022/12/23 04:34:28;;;;;;;10.30;3.43;;;11.10;99.90;;;;;;5080171;28;20264;-96
2022/12/23 04:36:57;;;;;;;9.47;3.57;;;11.20;99.90;;;;;;5061462;28;20244;-95
2022/12/23 04:39:31;;;;;;;17.63;3.60;;;11.20;99.90;;;;;;5080892;28;20314;-96
2022/12/23 04:41:58;;;;;;;13.93;3.50;;;11.30;99.90;;;;;;5076129;28;20298;-95
2022/12/23 04:44:28;;;;;;;12.30;3.93;;;11.20;99.90;;;;;;5059789;28;20296;-92
2022/12/23 04:47:04;;;;;;;10.30;3.67;;;11.30;99.90;;;;;;5079863;28;20210;-93
2022/12/23 04:49:43;;;;;;;9.47;3.67;;;11.30;99.90;;;;;;5069316;28;20221;-94
2022/12/23 04:52:10;;;;;;;13.83;3.90;;;11.30;99.90;;;;;;5060762;28;20193;-92
2022/12/23 04:54:45;;;;;;;11.53;3.70;;;11.30;99.90;;;;;;5061568;28;20513;-95
2022/12/23 04:57:18;;;;;;;9.27;3.47;;;11.20;99.90;;;;;;5060341;28;20635;-94
2022/12/23 04:59:45;;;;;;;11.67;3.87;;;11.20;99.90;;;;;;5061011;28;20291;-93
2022/12/23 05:02:12;;;;;;;11.10;4.00;;;11.20;99.90;;;;;;5067360;28;20203;-95
2022/12/23 05:04:53;;;;;;;11.77;4.47;;;11.20;99.90;;;;;;5081280;28;20195;-96
2022/12/23 05:10:44;;;;;;;7.97;3.40;;;11.30;99.90;;;;;;5084202;28;20181;-90
2022/12/23 05:13:24;;;;;;;8.60;3.93;;;11.30;99.90;;;;;;5083881;28;20640;-89
2022/12/23 05:15:57;;;;;;;11.23;4.43;;;11.30;99.90;;;;;;5076907;28;20254;-89
2022/12/23 05:18:39;;;;;;;10.57;3.77;;;11.30;99.90;;;;;;5062279;28;20247;-91
2022/12/23 05:21:12;;;;;;;11.33;3.60;;;11.30;99.90;;;;;;5061684;28;20232;-85
2022/12/23 05:23:55;;;;;;;7.93;3.60;;;11.20;99.90;;;;;;5078470;28;20617;-93
2022/12/23 05:26:25;;;;;;;9.90;3.33;;;11.20;99.90;;;;;;5081429;28;20227;-95
2022/12/23 05:29:21;;;;;;;10.83;3.97;;;11.20;99.90;;;;;;5081790;28;20307;-94
2022/12/23 05:31:56;;;;;;;11.03;3.40;;;11.30;99.90;;;;;;5078973;28;20298;-94
2022/12/23 05:34:35;;;;;;;10.00;4.13;;;11.30;99.90;;;;;;5079393;28;20243;-95
2022/12/23 05:37:02;;;;;;;6.93;3.10;;;11.30;99.90;;;;;;5082968;28;20246;-94
2022/12/23 05:39:32;;;;;;;9.50;3.70;;;11.30;99.90;;;;;;5083864;28;20311;-96
2022/12/23 05:42:48;;;;;;;8.07;3.77;;;11.40;99.90;;;;;;5075573;28;20205;-96
2022/12/23 05:45:20;;;;;;;10.07;4.03;;;11.30;99.90;;;;;;5063907;28;20216;-95
2022/12/23 05:47:53;;;;;;;11.10;4.13;;;11.30;99.90;;;;;;5077785;28;20327;-96
2022/12/23 05:50:20;;;;;;;11.17;3.73;;;11.40;99.90;;;;;;5081840;28;20524;-92
2022/12/23 05:52:50;;;;;;;9.23;3.13;;;11.50;99.90;;;;;;5082738;28;20311;-95
2022/12/23 05:55:25;;;;;;;7.13;3.27;;;11.30;99.90;;;;;;5083222;28;20204;-94
2022/12/23 05:57:53;;;;;;;6.83;3.13;;;11.30;99.90;;;;;;5083741;28;20305;-95
2022/12/23 06:00:34;;;;;;;8.83;3.10;;;11.30;99.90;;;;;;5083358;28;20226;-81
2022/12/23 06:03:25;;;;;;;7.70;2.93;;;11.30;99.90;;;;;;5062388;28;20247;-95
2022/12/23 06:05:58;;;;;;;7.40;2.93;;;11.30;99.90;;;;;;5073884;28;20255;-94
2022/12/23 06:08:31;;;;;;;11.47;3.63;;;11.30;99.90;;;;;;5084701;28;20258;-94
2022/12/23 06:11:11;;;;;;;9.07;2.80;;;11.30;99.90;;;;;;5083734;28;20638;-95
2022/12/23 06:13:41;;;;;;;7.90;2.87;;;11.30;99.90;;;;;;5084179;28;20205;-95
2022/12/23 06:16:13;;;;;;;7.20;2.90;;;11.30;99.90;;;;;;5083338;28;20258;-80
2022/12/23 06:18:49;;;;;;;7.80;3.10;;;11.40;99.90;;;;;;5070863;28;20271;-88
2022/12/23 06:21:28;;;;;;;6.27;2.53;;;11.40;99.90;;;;;;5068972;28;20277;-95
2022/12/23 06:24:05;;;;;;;5.73;3.20;;;11.40;99.90;;;;;;5084851;28;20215;-90
2022/12/23 06:26:37;;;;;;;9.70;3.00;;;11.40;99.90;;;;;;5065562;28;20235;-90
2022/12/23 06:29:16;;;;;;;6.53;3.03;;;11.40;99.90;;;;;;5065959;28;20245;-91
2022/12/23 06:31:47;;;;;;;10.20;3.47;;;11.30;99.90;;;;;;5075745;28;20223;-91
2022/12/23 06:34:33;;;;;;;10.23;3.10;;;11.20;99.90;;;;;;5084116;28;20268;-95
2022/12/23 06:37:04;;;;;;;7.80;3.00;;;11.20;99.90;;;;;;5049265;28;20232;-95
2022/12/23 06:39:39;;;;;;;6.13;3.63;;;11.20;99.90;;;;;;5063589;28;20311;-94
2022/12/23 06:42:06;;;;;;;11.30;3.30;;;11.10;99.90;;;;;;5073130;28;20232;-94
2022/12/23 06:44:49;;;;;;;9.87;3.70;;;11.10;99.90;;;;;;5065878;28;20217;-95
2022/12/23 06:47:20;;;;;;;9.50;3.00;;;11.10;99.90;;;;;;5082211;28;20222;-96
2022/12/23 06:49:56;;;;;;;9.50;3.40;;;11.00;99.90;;;;;;5045032;28;20237;-96
2022/12/23 06:52:26;;;;;;;11.17;3.53;;;11.00;99.90;;;;;;5060029;28;20264;-95
2022/12/23 06:55:24;;;;;;;13.13;3.40;;;11.10;99.90;;;;;;5082823;28;20298;-95
2022/12/23 06:57:51;;;;;;;15.63;3.70;;;11.10;99.90;;;;;;5064147;28;20240;-96
2022/12/23 07:00:19;;;;;;;9.07;3.30;;;11.20;99.90;;;;;;5045398;28;20653;-95
2022/12/23 07:03:06;;;;;;;13.77;4.50;;;11.10;99.90;;;;;;5061999;28;20487;-95
2022/12/23 07:05:34;;;;;;;8.23;3.30;;;11.40;99.90;;;;;;5062992;28;20205;-95
2022/12/23 07:08:14;;;;;;;7.23;3.83;;;11.40;99.90;;;;;;5062438;28;20256;-96
2022/12/23 07:11:02;;;;;;;8.63;3.87;;;11.30;99.90;;;;;;5063184;28;20295;-96
2022/12/23 07:13:33;;;;;;;7.13;4.13;;;11.20;99.90;;;;;;5074696;28;20645;-91
2022/12/23 07:16:15;;;;;;;11.70;4.53;;;11.10;99.90;;;;;;5082889;28;20236;-89
2022/12/23 07:18:50;;;;;;;10.37;4.73;;;11.10;99.90;;;;;;5082673;28;20323;-96
2022/12/23 07:24:42;;;;;;;12.40;5.70;;;11.20;99.90;;;;;;5086109;28;20328;-94
2022/12/23 07:27:15;;;;;;;13.87;6.30;;;11.10;99.90;;;;;;5088790;28;20208;-93
2022/12/23 07:29:43;;;;;;;26.83;7.93;;;11.10;99.90;;;;;;5088866;28;20266;-95
2022/12/23 07:32:20;;;;;;;19.35;10.07;;;11.10;99.90;;;;;;5072775;28;20436;-91
2022/12/23 07:35:02;;;;;;;17.73;8.27;;;11.30;99.90;;;;;;5092742;28;20223;-95
2022/12/23 07:37:35;;;;;;;19.47;7.93;;;11.30;99.90;;;;;;5086040;28;20223;-92
2022/12/23 07:40:02;;;;;;;17.27;7.87;;;11.10;99.90;;;;;;5064245;28;20239;-91
2022/12/23 07:42:31;;;;;;;16.07;8.40;;;10.90;99.90;;;;;;5070480;28;20203;-92
2022/12/23 07:44:58;;;;;;;18.37;8.33;;;10.90;99.90;;;;;;5082921;28;20209;-91
2022/12/23 07:47:28;;;;;;;23.90;9.67;;;10.90;99.90;;;;;;5080415;28;20227;-81
2022/12/23 07:50:05;;;;;;;23.27;8.60;;;10.90;99.90;;;;;;5063454;28;20292;-85
2022/12/23 07:52:32;;;;;;;22.90;9.43;;;10.90;99.90;;;;;;5075474;28;20649;-81
2022/12/23 07:55:02;;;;;;;22.80;8.30;;;11.00;99.90;;;;;;5065115;28;20230;-80
2022/12/23 07:57:36;;;;;;;19.33;8.50;;;11.10;99.90;;;;;;5070249;28;20246;-86
2022/12/23 08:00:05;;;;;;;23.70;8.52;;;11.20;99.90;;;;;;5080751;28;20435;-95
2022/12/23 08:02:36;;;;;;;26.10;9.13;;;11.20;99.90;;;;;;5086191;28;20213;-81
2022/12/23 08:05:13;;;;;;;21.50;8.00;;;11.30;99.90;;;;;;5088682;28;20211;-85
2022/12/23 08:07:40;;;;;;;18.60;8.10;;;11.30;99.90;;;;;;5091240;28;20226;-84
2022/12/23 08:10:10;;;;;;;17.13;7.70;;;11.30;99.90;;;;;;5090235;28;20204;-90
2022/12/23 08:12:40;;;;;;;26.93;13.10;;;11.20;99.90;;;;;;5078907;28;20224;-94
2022/12/23 08:15:08;;;;;;;17.20;6.67;;;11.30;99.90;;;;;;5064653;28;20231;-94
2022/12/23 08:17:42;;;;;;;19.00;6.43;;;11.20;99.90;;;;;;5066083;28;20250;-95
2022/12/23 08:20:14;;;;;;;17.40;6.70;;;11.20;99.90;;;;;;5084781;28;20212;-95
2022/12/23 08:22:45;;;;;;;16.93;6.50;;;11.10;99.90;;;;;;5073559;28;20208;-90
2022/12/23 08:25:13;;;;;;;17.20;6.27;;;11.20;99.90;;;;;;5072543;28;20299;-95
2022/12/23 08:27:43;;;;;;;16.33;5.63;;;11.10;99.90;;;;;;5076725;28;20191;-91
2022/12/23 08:30:12;;;;;;;14.27;6.73;;;11.10;99.90;;;;;;5064655;28;20242;-95
2022/12/23 08:32:39;;;;;;;12.23;6.37;;;11.10;99.90;;;;;;5061753;28;20211;-89
2022/12/23 08:35:18;;;;;;;15.00;6.17;;;11.10;99.90;;;;;;5061954;28;20255;-95
2022/12/23 08:37:58;;;;;;;18.37;6.50;;;11.10;99.90;;;;;;5063998;28;20308;-96
2022/12/23 08:40:27;;;;;;;17.57;5.97;;;11.10;99.90;;;;;;5071451;28;20252;-89
2022/12/23 08:43:00;;;;;;;15.67;6.13;;;11.00;99.90;;;;;;5066637;28;20271;-95
2022/12/23 08:45:27;;;;;;;13.77;5.40;;;11.00;99.90;;;;;;5083732;28;20195;-90
2022/12/23 08:47:55;;;;;;;13.23;6.10;;;11.00;99.90;;;;;;5079957;28;20260;-93
2022/12/23 08:50:31;;;;;;;17.73;5.80;;;11.00;99.90;;;;;;5087721;28;20202;-95
2022/12/23 08:52:58;;;;;;;14.03;5.80;;;11.00;99.90;;;;;;5088360;28;20231;-94
2022/12/23 08:55:25;;;;;;;10.80;6.03;;;11.10;99.90;;;;;;5077574;28;20269;-91
2022/12/23 08:57:53;;;;;;;15.37;6.77;;;11.00;99.90;;;;;;5056475;28;20290;-89
2022/12/23 09:00:21;;;;;;;14.57;6.07;;;11.00;99.90;;;;;;5072758;28;20207;-89
2022/12/23 09:02:48;;;;;;;13.53;6.33;;;10.90;99.90;;;;;;5074817;28;20211;-83
2022/12/23 09:05:32;;;;;;;15.07;6.77;;;11.00;99.90;;;;;;5079609;28;20275;-94
2022/12/23 09:08:06;;;;;;;12.97;6.30;;;10.90;99.90;;;;;;5079863;28;20211;-92
2022/12/23 09:10:41;;;;;;;11.07;6.57;;;10.80;99.90;;;;;;5075865;28;20623;-86
2022/12/23 09:13:13;;;;;;;10.57;7.10;;;10.80;99.90;;;;;;5074254;28;20217;-92
2022/12/23 09:15:46;;;;;;;13.23;5.67;;;10.80;99.90;;;;;;5068158;28;20227;-86
2022/12/23 09:18:19;;;;;;;15.10;6.27;;;10.70;99.90;;;;;;5080228;28;20321;-92
2022/12/23 09:23:51;;;;;;;12.37;6.63;;;10.80;99.90;;;;;;5078183;28;20200;-91
2022/12/23 09:26:28;;;;;;;13.00;6.40;;;10.90;99.90;;;;;;5073107;28;20207;-88
2022/12/23 09:29:01;;;;;;;17.77;9.60;;;10.80;99.90;;;;;;5070245;28;20463;-95
2022/12/23 09:31:30;;;;;;;19.37;7.40;;;10.80;99.90;;;;;;5059416;28;20224;-83
2022/12/23 09:34:00;;;;;;;14.50;6.93;;;10.90;99.90;;;;;;5064979;28;20215;-82
2022/12/23 09:36:29;;;;;;;11.37;6.77;;;10.90;99.90;;;;;;5067589;28;20207;-84
2022/12/23 09:38:57;;;;;;;14.83;7.37;;;10.80;99.90;;;;;;5057129;28;20231;-87
2022/12/23 09:41:41;;;;;;;12.17;7.30;;;10.80;99.90;;;;;;5061638;28;20246;-88
2022/12/23 09:44:21;;;;;;;12.50;6.90;;;10.70;99.90;;;;;;5061605;28;20199;-87
2022/12/23 09:46:53;;;;;;;12.10;6.93;;;10.70;99.90;;;;;;5075784;28;20301;-92
2022/12/23 09:49:28;;;;;;;10.30;6.90;;;10.70;99.90;;;;;;5075900;28;20227;-83
2022/12/23 09:52:08;;;;;;;14.37;7.07;;;10.80;99.90;;;;;;5075261;28;20198;-91
2022/12/23 09:54:44;;;;;;;13.27;7.97;;;10.80;99.90;;;;;;5075049;28;20212;-85
2022/12/23 09:57:22;;;;;;;15.40;8.07;;;10.90;99.90;;;;;;5067875;28;20257;-82
2022/12/23 10:00:06;;;;;;;9.70;6.93;;;10.90;99.90;;;;;;5069405;28;20226;-85
2022/12/23 10:02:48;;;;;;;11.93;7.17;;;10.90;99.90;;;;;;5066986;28;20214;-88
2022/12/23 10:05:30;;;;;;;11.80;7.00;;;10.90;99.90;;;;;;5075343;28;20650;-96
2022/12/23 10:08:04;;;;;;;8.70;6.33;;;10.90;99.90;;;;;;5066288;28;20246;-92
2022/12/23 10:10:38;;;;;;;11.30;7.77;;;10.90;99.90;;;;;;5065913;28;20217;-94
2022/12/23 10:13:14;;;;;;;9.07;7.47;;;10.90;99.90;;;;;;5051555;28;20409;-91
2022/12/23 10:15:44;;;;;;;12.70;8.07;;;10.80;99.90;;;;;;5063189;28;20206;-81
2022/12/23 10:18:21;;;;;;;11.97;7.40;;;10.80;99.90;;;;;;5068439;28;20233;-85
2022/12/23 10:20:53;;;;;;;14.00;7.70;;;10.70;99.90;;;;;;5070305;28;20641;-83
2022/12/23 10:23:30;;;;;;;11.97;6.90;;;10.70;99.90;;;;;;5066835;28;20207;-81
2022/12/23 10:26:21;;;;;;;10.37;7.27;;;10.80;99.90;;;;;;5085671;28;20248;-87
2022/12/23 10:29:10;;;;;;;10.20;6.90;;;10.80;99.90;;;;;;5080977;28;20303;-88
2022/12/23 10:31:57;;;;;;;12.73;7.30;;;10.90;99.90;;;;;;5073510;28;20211;-89
2022/12/23 10:34:39;;;;;;;13.10;7.70;;;10.90;99.90;;;;;;5078155;28;20285;-89
2022/12/23 10:37:14;;;;;;;11.17;7.80;;;10.90;99.90;;;;;;5071706;28;20223;-93
2022/12/23 10:39:59;;;;;;;9.53;7.80;;;10.80;99.90;;;;;;5085301;28;20254;-90
2022/12/23 10:42:35;;;;;;;9.67;7.47;;;10.90;99.90;;;;;;5080305;28;20206;-90
2022/12/23 10:45:27;;;;;;;8.13;7.20;;;10.80;99.90;;;;;;5070584;28;20203;-96
2022/12/23 10:48:05;;;;;;;11.13;7.80;;;10.90;99.90;;;;;;5071803;28;20767;-85
2022/12/23 10:50:51;;;;;;;8.83;7.77;;;11.00;99.90;;;;;;5069456;28;20203;-94
2022/12/23 10:53:29;;;;;;;9.27;7.80;;;11.00;99.90;;;;;;5050158;28;20245;-93
2022/12/23 10:56:06;;;;;;;9.80;8.07;;;10.90;99.90;;;;;;5070355;28;20232;-96
2022/12/23 10:58:44;;;;;;;10.60;8.43;;;10.90;99.90;;;;;;5067148;28;20240;-96
2022/12/23 11:01:13;;;;;;;12.20;8.07;;;10.90;99.90;;;;;;5067432;28;20250;-93
2022/12/23 11:03:44;;;;;;;12.33;8.87;;;10.80;99.90;;;;;;5077580;28;20219;-96
2022/12/23 11:06:12;;;;;;;11.33;8.87;;;10.80;99.90;;;;;;5082114;28;20230;-93
2022/12/23 11:08:41;;;;;;;11.57;8.50;;;10.80;99.90;;;;;;5090760;28;20218;-93
2022/12/23 11:11:09;;;;;;;10.83;9.20;;;10.80;99.90;;;;;;5097490;28;20301;-89
2022/12/23 11:13:39;;;;;;;11.17;8.37;;;10.80;99.90;;;;;;5091465;28;20233;-89
2022/12/23 11:16:31;;;;;;;10.40;8.17;;;10.90;99.90;;;;;;5089930;28;20235;-93
2022/12/23 11:19:02;;;;;;;10.07;8.30;;;10.90;99.90;;;;;;5096405;28;20270;-87
2022/12/23 11:21:32;;;;;;;10.23;7.60;;;10.90;99.90;;;;;;5094404;28;20200;-90
2022/12/23 11:24:21;;;;;;;8.77;7.73;;;10.90;99.90;;;;;;5070496;28;20213;-96
2022/12/23 11:27:00;;;;;;;8.90;8.00;;;11.00;99.90;;;;;;5065198;28;20200;-93
2022/12/23 11:29:31;;;;;;;10.50;8.57;;;10.90;99.90;;;;;;5078117;28;20297;-96
2022/12/23 11:31:59;;;;;;;9.93;6.73;;;10.90;99.90;;;;;;5067581;28;20208;-94
2022/12/23 11:34:29;;;;;;;8.40;7.30;;;10.90;99.90;;;;;;5080663;28;20199;-96
2022/12/23 11:36:59;;;;;;;8.40;6.43;;;11.00;99.90;;;;;;5079736;28;20216;-94
2022/12/23 11:39:27;;;;;;;7.53;6.50;;;11.10;99.90;;;;;;5076991;28;20233;-96
2022/12/23 11:42:15;;;;;;;7.53;6.70;;;11.20;99.90;;;;;;5071533;28;20195;-92
2022/12/23 11:44:45;;;;;;;8.03;7.17;;;11.20;99.90;;;;;;5064480;28;20214;-95
2022/12/23 11:47:25;;;;;;;6.17;5.50;;;11.30;99.90;;;;;;5075369;28;20300;-94
2022/12/23 11:49:53;;;;;;;6.20;5.47;;;11.30;99.90;;;;;;5072723;28;20241;-92
2022/12/23 11:52:22;;;;;;;6.07;5.10;;;11.50;99.90;;;;;;5069482;28;20635;-95
2022/12/23 11:54:52;;;;;;;6.20;5.60;;;11.50;99.90;;;;;;5066801;28;20213;-92
2022/12/23 11:57:33;;;;;;;8.63;7.72;;;11.70;99.90;;;;;;5083927;28;20466;-94
2022/12/23 12:00:05;;;;;;;7.50;5.53;;;11.80;99.90;;;;;;5083124;28;20285;-96
2022/12/23 12:02:36;;;;;;;6.03;5.43;;;11.80;99.90;;;;;;5076220;28;20261;-95
2022/12/23 12:05:06;;;;;;;5.63;5.10;;;11.80;99.90;;;;;;5071910;28;20221;-86
2022/12/23 12:07:35;;;;;;;6.40;5.40;;;11.90;99.90;;;;;;5079143;28;20291;-92
2022/12/23 12:10:04;;;;;;;5.97;5.43;;;12.00;99.90;;;;;;5078554;28;20203;-90
2022/12/23 12:12:33;;;;;;;5.47;4.97;;;12.10;99.90;;;;;;5064587;28;20527;-92
2022/12/23 12:15:21;;;;;;;5.60;5.00;;;12.20;99.90;;;;;;5064464;28;20296;-91
2022/12/23 12:17:53;;;;;;;5.57;5.07;;;12.30;99.90;;;;;;5086589;28;20233;-90
2022/12/23 12:20:35;;;;;;;4.90;4.50;;;12.30;99.90;;;;;;5074423;28;20213;-88
2022/12/23 12:23:06;;;;;;;4.07;3.77;;;12.40;99.90;;;;;;5083812;28;20206;-94
2022/12/23 12:25:39;;;;;;;4.47;4.07;;;12.40;99.90;;;;;;5073632;28;20231;-96
2022/12/23 12:28:17;;;;;;;5.33;3.70;;;12.60;99.90;;;;;;5071194;28;20230;-88
2022/12/23 12:30:49;;;;;;;4.70;3.77;;;12.70;99.90;;;;;;5064136;28;20288;-94
2022/12/23 12:33:21;;;;;;;3.60;3.40;;;12.90;99.90;;;;;;5085009;28;20228;-95
2022/12/23 12:35:50;;;;;;;3.57;3.30;;;13.10;99.90;;;;;;5085132;28;20177;-88
2022/12/23 12:38:24;;;;;;;3.70;3.40;;;13.10;99.90;;;;;;5098878;28;20218;-89
2022/12/23 12:40:56;;;;;;;3.27;2.97;;;13.20;99.90;;;;;;5091892;28;20189;-88
2022/12/23 12:43:33;;;;;;;3.23;3.03;;;13.20;99.90;;;;;;5078520;28;20182;-90
2022/12/23 12:46:27;;;;;;;6.30;3.10;;;13.30;99.90;;;;;;5088602;28;20216;-88
2022/12/23 12:49:01;;;;;;;4.40;2.60;;;13.30;99.90;;;;;;5082153;28;20245;-92
2022/12/23 12:51:33;;;;;;;2.77;2.57;;;13.30;99.90;;;;;;5079595;28;20202;-92
2022/12/23 12:54:06;;;;;;;2.50;2.30;;;13.40;99.90;;;;;;5068088;28;20206;-92
2022/12/23 12:56:38;;;;;;;2.60;2.40;;;13.50;99.90;;;;;;5071670;28;20429;-91
2022/12/23 12:59:10;;;;;;;1.80;1.70;;;13.60;99.90;;;;;;5079133;28;20673;-92
2022/12/23 13:01:46;;;;;;;2.27;1.60;;;13.60;99.90;;;;;;5079604;28;20221;-90
2022/12/23 13:04:37;;;;;;;1.70;1.60;;;13.60;99.90;;;;;;5071212;28;20202;-93
2022/12/23 13:07:12;;;;;;;1.20;1.20;;;13.60;99.90;;;;;;5086790;28;20212;-91
2022/12/23 13:09:47;;;;;;;2.77;1.40;;;13.60;99.90;;;;;;5087881;28;20266;-88
2022/12/23 13:12:22;;;;;;;2.30;1.27;;;13.60;99.90;;;;;;5088521;28;20573;-89
2022/12/23 13:14:59;;;;;;;2.40;1.43;;;13.80;99.90;;;;;;5081527;28;20189;-89
2022/12/23 13:17:32;;;;;;;2.20;1.20;;;13.70;99.90;;;;;;5082194;28;20197;-93
2022/12/23 13:20:23;;;;;;;1.57;1.13;;;13.70;99.90;;;;;;5080644;28;20193;-89
2022/12/23 13:22:56;;;;;;;1.43;1.30;;;13.70;99.90;;;;;;5076006;28;20213;-89
2022/12/23 13:25:30;;;;;;;2.00;1.20;;;13.70;99.90;;;;;;5086525;28;20414;-93
2022/12/23 13:28:02;;;;;;;1.97;1.13;;;13.80;99.90;;;;;;5094862;28;20216;-90
2022/12/23 13:30:55;;;;;;;1.40;1.30;;;13.70;99.90;;;;;;5076417;28;20297;-90
2022/12/23 13:33:29;;;;;;;1.67;1.40;;;13.70;99.90;;;;;;5077930;28;20220;-93
2022/12/23 13:36:15;;;;;;;2.33;0.97;;;13.70;99.90;;;;;;5077121;28;20232;-88
2022/12/23 13:39:03;;;;;;;1.87;1.10;;;13.90;99.90;;;;;;5074001;28;20237;-90
2022/12/23 13:41:44;;;;;;;1.57;1.07;;;13.80;99.90;;;;;;5056303;28;20293;-92
2022/12/23 13:44:19;;;;;;;3.50;1.07;;;13.80;99.90;;;;;;5064467;28;20232;-92
2022/12/23 13:47:05;;;;;;;1.60;1.07;;;13.80;99.90;;;;;;5081528;28;20209;-91
2022/12/23 13:49:52;;;;;;;2.03;0.77;;;13.90;99.90;;;;;;5064959;28;20229;-92
2022/12/23 13:52:30;;;;;;;1.03;1.00;;;14.00;99.90;;;;;;5080712;28;20245;-92
2022/12/23 13:55:14;;;;;;;1.47;0.80;;;13.90;99.90;;;;;;5076077;28;20642;-91
2022/12/23 13:57:58;;;;;;;1.77;0.70;;;13.90;99.90;;;;;;5063039;28;20214;-94
2022/12/23 14:00:29;;;;;;;1.50;0.90;;;14.00;99.90;;;;;;5081364;28;20205;-93
2022/12/23 14:03:22;;;;;;;2.80;0.90;;;14.00;99.90;;;;;;5081660;28;20280;-91